createdAt,value
2024-05-09T00:00:48.364Z,77.05
2024-05-09T00:03:36.546Z,77.21
2024-05-09T00:06:05.629Z,78.50
2024-05-09T00:08:34.146Z,78.14
2024-05-09T00:11:03.036Z,78.64
2024-05-09T00:13:31.436Z,78.52
2024-05-09T00:16:00.202Z,77.39
2024-05-09T00:18:28.444Z,76.90
2024-05-09T00:20:57.083Z,78.19
2024-05-09T00:23:25.380Z,77.73
2024-05-09T00:25:53.985Z,77.50
2024-05-09T00:28:22.470Z,77.25
2024-05-09T00:30:51.417Z,77.18
2024-05-09T00:33:19.597Z,77.56
2024-05-09T00:35:48.140Z,77.14
2024-05-09T00:38:16.285Z,76.95
2024-05-09T00:40:44.968Z,76.15
2024-05-09T00:43:14.554Z,76.74
2024-05-09T00:45:44.348Z,77.20
2024-05-09T00:48:19.740Z,76.82
2024-05-09T00:50:50.976Z,76.61
2024-05-09T00:53:19.570Z,77.15
2024-05-09T00:55:48.628Z,75.89
2024-05-09T00:58:20.999Z,77.76
2024-05-09T01:00:50.704Z,78.34
2024-05-09T01:03:19.982Z,76.61
2024-05-09T01:05:48.841Z,77.76
2024-05-09T01:08:17.140Z,77.96
2024-05-09T01:10:47.903Z,77.78
2024-05-09T01:13:16.785Z,78.39
2024-05-09T01:15:45.364Z,78.50
2024-05-09T01:18:14.444Z,78.02
2024-05-09T01:20:44.927Z,78.58
2024-05-09T01:23:15.851Z,79.15
2024-05-09T01:25:46.502Z,77.54
2024-05-09T01:28:16.579Z,77.79
2024-05-09T01:30:45.325Z,78.33
2024-05-09T01:33:14.049Z,78.66
2024-05-09T01:35:43.376Z,78.52
2024-05-09T01:38:17.541Z,79.34
2024-05-09T01:40:47.387Z,79.38
2024-05-09T01:43:16.330Z,79.67
2024-05-09T01:45:44.910Z,79.61
2024-05-09T01:48:13.309Z,78.53
2024-05-09T01:50:43.268Z,78.92
2024-05-09T01:53:14.910Z,79.28
2024-05-09T01:55:44.616Z,77.96
2024-05-09T01:58:13.433Z,79.05
2024-05-09T02:00:43.379Z,81.00
2024-05-09T02:03:16.122Z,80.37
2024-05-09T02:05:48.425Z,79.68
2024-05-09T02:08:21.875Z,80.36
2024-05-09T02:10:51.010Z,80.45
2024-05-09T02:13:19.297Z,81.37
2024-05-09T02:15:52.567Z,80.28
2024-05-09T02:18:21.158Z,80.88
2024-05-09T02:20:50.111Z,80.65
2024-05-09T02:23:18.541Z,81.03
2024-05-09T02:25:47.092Z,81.48
2024-05-09T02:28:15.262Z,81.56
2024-05-09T02:30:43.746Z,80.27
2024-05-09T02:33:13.736Z,80.62
2024-05-09T02:35:44.220Z,80.74
2024-05-09T02:38:13.497Z,81.20
2024-05-09T02:40:42.327Z,80.73
2024-05-09T02:43:13.051Z,81.96
2024-05-09T02:45:42.189Z,80.70
2024-05-09T02:48:12.085Z,80.67
2024-05-09T02:50:42.035Z,80.99
2024-05-09T02:53:14.452Z,80.46
2024-05-09T02:55:43.503Z,80.94
2024-05-09T02:58:12.469Z,81.52
2024-05-09T03:00:42.592Z,81.79
2024-05-09T03:03:14.104Z,82.30
2024-05-09T03:05:45.299Z,82.18
2024-05-09T03:08:14.150Z,82.53
2024-05-09T03:10:43.203Z,81.57
2024-05-09T03:13:15.081Z,81.58
2024-05-09T03:15:45.242Z,82.02
2024-05-09T03:18:13.922Z,82.78
2024-05-09T03:20:44.832Z,82.22
2024-05-09T03:23:13.249Z,81.96
2024-05-09T03:25:42.000Z,82.56
2024-05-09T03:28:11.606Z,82.40
2024-05-09T03:30:42.634Z,84.56
2024-05-09T03:33:19.405Z,84.97
2024-05-09T03:35:49.629Z,84.17
2024-05-09T03:38:18.517Z,83.88
2024-05-09T03:40:49.070Z,84.07
2024-05-09T03:43:19.098Z,84.28
2024-05-09T03:45:50.738Z,84.75
2024-05-09T03:48:19.249Z,84.75
2024-05-09T03:50:48.255Z,84.05
2024-05-09T03:53:16.623Z,83.94
2024-05-09T03:55:48.799Z,85.65
2024-05-09T03:58:16.977Z,83.54
2024-05-09T04:00:45.591Z,83.69
2024-05-09T04:03:13.974Z,84.38
2024-05-09T04:05:46.254Z,86.33
2024-05-09T04:08:15.802Z,86.87
2024-05-09T04:10:44.528Z,86.74
2024-05-09T04:13:12.618Z,86.94
2024-05-09T04:15:41.123Z,85.75
2024-05-09T04:18:09.369Z,84.05
2024-05-09T04:20:40.392Z,83.74
2024-05-09T04:23:14.308Z,83.46
2024-05-09T04:25:45.479Z,82.49
2024-05-09T04:28:14.488Z,82.75
2024-05-09T04:30:43.671Z,82.04
2024-05-09T04:33:13.988Z,81.95
2024-05-09T04:35:44.130Z,81.86
2024-05-09T04:38:16.059Z,81.48
2024-05-09T04:40:44.953Z,81.26
2024-05-09T04:43:18.977Z,81.01
2024-05-09T04:45:47.737Z,81.41
2024-05-09T04:48:16.786Z,80.24
2024-05-09T04:50:45.653Z,80.39
2024-05-09T04:53:17.505Z,80.11
2024-05-09T04:55:46.391Z,79.73
2024-05-09T04:58:14.627Z,79.27
2024-05-09T05:00:44.362Z,79.96
2024-05-09T05:03:14.982Z,80.95
2024-05-09T05:05:46.666Z,79.18
2024-05-09T05:08:17.133Z,78.92
2024-05-09T05:10:47.735Z,78.58
2024-05-09T05:13:18.499Z,77.87
2024-05-09T05:15:47.995Z,77.65
2024-05-09T05:18:17.038Z,77.18
2024-05-09T05:20:46.083Z,76.72
2024-05-09T05:23:16.308Z,75.68
2024-05-09T05:25:48.271Z,76.59
2024-05-09T05:28:17.383Z,74.90
2024-05-09T05:30:46.575Z,75.21
2024-05-09T05:33:19.244Z,74.28
2024-05-09T05:35:48.491Z,73.43
2024-05-09T05:38:16.732Z,73.03
2024-05-09T05:40:45.425Z,73.15
2024-05-09T05:43:18.311Z,73.33
2024-05-09T05:45:47.133Z,74.15
2024-05-09T05:48:17.438Z,73.13
2024-05-09T05:50:46.495Z,73.21
2024-05-09T05:53:14.773Z,73.97
2024-05-09T05:55:43.356Z,72.90
2024-05-09T05:58:12.799Z,72.60
2024-05-09T06:00:42.237Z,71.86
2024-05-09T06:03:12.810Z,71.03
2024-05-09T06:05:46.958Z,71.37
2024-05-09T06:08:15.398Z,70.72
2024-05-09T06:10:44.023Z,70.06
2024-05-09T06:13:14.602Z,69.43
2024-05-09T06:15:43.768Z,67.89
2024-05-09T06:18:15.173Z,66.68
2024-05-09T06:20:44.388Z,66.62
2024-05-09T06:23:13.311Z,67.04
2024-05-09T06:25:42.713Z,67.13
2024-05-09T06:28:11.707Z,66.99
2024-05-09T06:30:42.567Z,67.21
2024-05-09T06:33:14.215Z,67.24
2024-05-09T06:35:46.392Z,66.92
2024-05-09T06:38:14.798Z,65.66
2024-05-09T06:40:44.401Z,65.04
2024-05-09T06:43:14.754Z,64.01
2024-05-09T06:45:44.390Z,63.35
2024-05-09T06:48:12.702Z,63.39
2024-05-09T06:53:10.018Z,62.59
2024-05-09T06:55:38.713Z,63.30
2024-05-09T06:58:07.913Z,62.70
2024-05-09T07:00:39.812Z,62.62
2024-05-09T07:03:11.540Z,61.31
2024-05-09T07:05:41.826Z,61.29
2024-05-09T07:08:10.076Z,62.43
2024-05-09T07:10:38.794Z,61.50
2024-05-09T07:13:10.648Z,60.61
2024-05-09T07:15:39.616Z,59.94
2024-05-09T07:18:17.696Z,59.82
2024-05-09T07:20:49.135Z,60.28
2024-05-09T07:23:18.973Z,59.07
2024-05-09T07:25:47.809Z,56.34
2024-05-09T07:28:17.756Z,56.61
2024-05-09T07:30:46.354Z,53.68
2024-05-09T07:33:19.375Z,53.18
2024-05-09T07:35:48.798Z,52.49
2024-05-09T07:38:16.951Z,50.97
2024-05-09T07:40:45.659Z,50.28
2024-05-09T07:43:14.991Z,48.48
2024-05-09T07:45:51.437Z,50.25
2024-05-09T07:52:46.049Z,50.23
2024-05-09T07:53:50.569Z,48.96
2024-05-09T07:56:23.154Z,48.01
2024-05-09T07:58:54.129Z,49.35
2024-05-09T08:01:26.350Z,49.52
2024-05-09T08:03:55.483Z,49.60
2024-05-09T08:06:24.668Z,49.69
2024-05-09T08:08:52.935Z,48.61
2024-05-09T08:11:21.571Z,48.94
2024-05-09T08:13:49.785Z,47.52
2024-05-09T08:16:18.241Z,47.23
2024-05-09T08:18:46.495Z,46.68
2024-05-09T08:21:15.068Z,45.12
2024-05-09T08:23:43.132Z,46.00
2024-05-09T08:26:12.161Z,46.88
2024-05-09T08:28:40.253Z,46.77
2024-05-09T08:31:10.471Z,46.41
2024-05-09T08:33:44.793Z,46.37
2024-05-09T08:36:14.161Z,47.31
2024-05-09T08:38:42.183Z,45.83
2024-05-09T08:41:13.995Z,45.13
2024-05-09T08:43:44.721Z,46.57
2024-05-09T08:46:14.592Z,44.96
2024-05-09T08:48:45.952Z,45.34
2024-05-09T08:51:14.702Z,45.39
2024-05-09T08:53:42.869Z,44.58
2024-05-09T08:56:12.205Z,44.18
2024-05-09T08:58:42.812Z,45.23
2024-05-09T09:01:12.562Z,45.94
2024-05-09T09:03:42.780Z,45.92
2024-05-09T09:06:18.403Z,43.83
2024-05-09T09:08:47.711Z,44.21
2024-05-09T09:11:16.292Z,44.56
2024-05-09T09:13:44.419Z,44.76
2024-05-09T09:16:13.129Z,46.30
2024-05-09T09:18:44.870Z,45.05
2024-05-09T09:21:13.798Z,46.50
2024-05-09T09:23:41.997Z,44.79
2024-05-09T09:26:16.175Z,44.45
2024-05-09T09:28:47.379Z,45.45
2024-05-09T09:31:19.526Z,44.31
2024-05-09T09:33:48.086Z,45.47
2024-05-09T09:36:18.654Z,45.96
2024-05-09T09:38:48.256Z,45.40
2024-05-09T09:41:18.114Z,43.65
2024-05-09T09:43:46.359Z,43.89
2024-05-09T09:46:15.258Z,44.48
2024-05-09T09:48:44.971Z,42.86
2024-05-09T09:51:15.351Z,42.05
2024-05-09T09:53:44.379Z,44.02
2024-05-09T09:56:15.164Z,44.13
2024-05-09T09:58:44.983Z,43.24
2024-05-09T10:01:13.690Z,44.95
2024-05-09T10:03:45.690Z,45.95
2024-05-09T10:06:15.802Z,45.80
2024-05-09T10:08:47.017Z,44.64
2024-05-09T10:11:20.867Z,43.99
2024-05-09T10:13:51.751Z,43.81
2024-05-09T10:16:23.171Z,44.43
2024-05-09T10:18:51.524Z,42.33
2024-05-09T10:21:20.776Z,43.98
2024-05-09T10:24:03.932Z,44.36
2024-05-09T10:26:37.252Z,45.02
2024-05-09T10:29:15.338Z,44.41
2024-05-09T10:31:46.468Z,44.26
2024-05-09T10:34:37.882Z,42.77
2024-05-09T10:37:06.594Z,43.02
2024-05-09T10:39:39.130Z,42.97
2024-05-09T10:42:10.820Z,42.90
2024-05-09T10:44:39.151Z,42.68
2024-05-09T10:47:07.946Z,41.74
2024-05-09T10:49:36.226Z,41.65
2024-05-09T10:52:05.030Z,40.37
2024-05-09T10:54:39.850Z,39.97
2024-05-09T10:57:08.411Z,38.61
2024-05-09T10:59:39.507Z,41.07
2024-05-09T11:02:08.291Z,41.13
2024-05-09T11:04:40.547Z,41.21
2024-05-09T11:07:13.031Z,40.07
2024-05-09T11:09:43.483Z,41.00
2024-05-09T11:12:12.353Z,38.85
2024-05-09T11:14:40.499Z,39.10
2024-05-09T11:17:09.099Z,40.37
2024-05-09T11:19:45.111Z,41.51
2024-05-09T11:22:13.954Z,40.44
2024-05-09T11:24:42.175Z,39.49
2024-05-09T11:27:10.724Z,38.89
2024-05-09T11:29:39.436Z,38.42
2024-05-09T11:32:13.904Z,39.41
2024-05-09T11:34:42.974Z,39.64
2024-05-09T11:37:13.488Z,39.40
2024-05-09T11:39:41.813Z,38.96
2024-05-09T11:42:10.347Z,36.54
2024-05-09T11:44:38.371Z,36.75
2024-05-09T11:47:07.125Z,37.63
2024-05-09T11:49:35.412Z,38.40
2024-05-09T11:52:04.353Z,39.19
2024-05-09T11:54:32.713Z,38.25
2024-05-09T11:57:01.322Z,37.28
2024-05-09T11:59:29.430Z,34.95
2024-05-09T12:01:58.036Z,34.91
2024-05-09T12:04:26.587Z,34.87
2024-05-09T12:06:55.291Z,35.67
2024-05-09T12:09:23.520Z,35.20
2024-05-09T12:11:52.174Z,36.09
2024-05-09T12:14:20.291Z,37.45
2024-05-09T12:16:48.929Z,37.79
2024-05-09T12:19:18.115Z,38.31
2024-05-09T12:21:46.683Z,38.94
2024-05-09T12:24:17.720Z,39.36
2024-05-09T12:26:47.653Z,38.87
2024-05-09T12:29:15.999Z,38.21
2024-05-09T12:31:44.563Z,37.38
2024-05-09T12:34:13.102Z,40.60
2024-05-09T12:36:42.162Z,40.39
2024-05-09T12:39:10.418Z,40.01
2024-05-09T12:41:39.088Z,38.68
2024-05-09T12:44:07.151Z,38.38
2024-05-09T12:46:35.806Z,39.18
2024-05-09T12:49:04.250Z,40.50
2024-05-09T12:51:33.085Z,39.80
2024-05-09T12:54:01.288Z,39.70
2024-05-09T12:56:29.961Z,41.04
2024-05-09T12:58:58.101Z,41.40
2024-05-09T13:01:26.743Z,40.55
2024-05-09T13:03:55.025Z,39.98
2024-05-09T13:06:23.626Z,39.82
2024-05-09T13:08:51.768Z,39.75
2024-05-09T13:11:20.434Z,40.42
2024-05-09T13:13:48.727Z,38.90
2024-05-09T13:16:17.525Z,40.00
2024-05-09T13:18:45.854Z,39.56
2024-05-09T13:21:14.688Z,38.34
2024-05-09T13:23:42.746Z,37.80
2024-05-09T13:26:11.288Z,38.02
2024-05-09T13:28:39.404Z,38.68
2024-05-09T13:31:07.971Z,37.85
2024-05-09T13:33:36.383Z,38.26
2024-05-09T13:36:05.339Z,38.63
2024-05-09T13:38:33.553Z,38.17
2024-05-09T13:41:02.065Z,37.63
2024-05-09T13:43:30.420Z,37.68
2024-05-09T13:45:59.286Z,36.57
2024-05-09T13:48:27.564Z,34.53
2024-05-09T13:50:56.325Z,33.70
2024-05-09T13:53:25.440Z,34.63
2024-05-09T13:55:54.093Z,35.09
2024-05-09T13:58:23.747Z,35.30
2024-05-09T14:00:52.635Z,35.14
2024-05-09T14:03:21.457Z,35.40
2024-05-09T14:05:51.950Z,35.35
2024-05-09T14:08:22.632Z,33.98
2024-05-09T14:10:52.636Z,35.16
2024-05-09T14:13:21.101Z,35.75
2024-05-09T14:15:50.002Z,34.66
2024-05-09T14:18:18.426Z,34.73
2024-05-09T14:20:46.989Z,34.78
2024-05-09T14:23:17.836Z,34.77
2024-05-09T14:25:50.066Z,34.01
2024-05-09T14:28:22.440Z,33.15
2024-05-09T14:30:51.304Z,32.98
2024-05-09T14:33:27.161Z,35.51
2024-05-09T14:35:56.033Z,36.20
2024-05-09T14:38:24.972Z,37.35
2024-05-09T14:40:53.944Z,37.27
2024-05-09T14:43:22.351Z,35.95
2024-05-09T14:45:51.096Z,35.37
2024-05-09T14:48:20.277Z,36.49
2024-05-09T14:50:48.985Z,36.24
2024-05-09T14:53:17.006Z,37.52
2024-05-09T14:55:45.802Z,37.32
2024-05-09T14:58:14.103Z,37.43
2024-05-09T15:00:46.923Z,37.41
2024-05-09T15:03:19.709Z,37.01
2024-05-09T15:05:49.410Z,36.43
2024-05-09T15:08:18.709Z,36.63
2024-05-09T15:10:50.442Z,36.62
2024-05-09T15:13:19.835Z,37.12
2024-05-09T15:15:48.875Z,37.23
2024-05-09T15:18:18.061Z,36.87
2024-05-09T15:20:47.061Z,36.31
2024-05-09T15:23:15.219Z,35.58
2024-05-09T15:25:45.081Z,35.96
2024-05-09T15:28:13.298Z,35.16
2024-05-09T15:30:45.482Z,35.37
2024-05-09T15:33:15.469Z,35.38
2024-05-09T15:35:46.495Z,36.74
2024-05-09T15:38:15.985Z,37.01
2024-05-09T15:40:44.822Z,36.91
2024-05-09T15:43:12.992Z,37.18
2024-05-09T15:45:41.906Z,36.78
2024-05-09T15:48:11.291Z,36.65
2024-05-09T15:50:42.239Z,36.60
2024-05-09T15:53:13.419Z,37.16
2024-05-09T15:55:43.244Z,36.27
2024-05-09T15:58:12.872Z,36.88
2024-05-09T16:00:44.880Z,37.24
2024-05-09T16:03:15.258Z,37.55
2024-05-09T16:05:46.519Z,37.32
2024-05-09T16:08:15.994Z,36.76
2024-05-09T16:10:47.919Z,38.38
2024-05-09T16:13:17.443Z,38.73
2024-05-09T16:15:46.798Z,37.27
2024-05-09T16:18:15.662Z,38.36
2024-05-09T16:20:46.294Z,38.13
2024-05-09T16:23:16.530Z,38.59
2024-05-09T16:25:48.398Z,39.14
2024-05-09T16:28:17.132Z,38.59
2024-05-09T16:30:46.217Z,38.05
2024-05-09T16:33:14.761Z,38.67
2024-05-09T16:35:42.892Z,38.23
2024-05-09T16:38:11.370Z,39.30
2024-05-09T16:40:41.154Z,39.56
2024-05-09T16:43:12.165Z,39.60
2024-05-09T16:45:45.359Z,39.24
2024-05-09T16:48:14.655Z,40.18
2024-05-09T16:50:43.379Z,40.79
2024-05-09T16:53:13.757Z,40.68
2024-05-09T16:55:42.056Z,40.06
2024-05-09T16:58:12.831Z,40.70
2024-05-09T17:00:43.475Z,40.45
2024-05-09T17:03:15.365Z,41.12
2024-05-09T17:05:47.238Z,39.27
2024-05-09T17:08:20.408Z,39.85
2024-05-09T17:10:49.641Z,39.96
2024-05-09T17:13:19.314Z,39.86
2024-05-09T17:15:48.392Z,40.30
2024-05-09T17:18:17.050Z,40.16
2024-05-09T17:20:45.249Z,40.85
2024-05-09T17:23:14.429Z,40.80
2024-05-09T17:25:43.568Z,40.57
2024-05-09T17:28:12.578Z,40.89
2024-05-09T17:30:42.285Z,41.31
2024-05-09T17:33:12.907Z,41.20
2024-05-09T17:35:41.936Z,41.16
2024-05-09T17:38:10.522Z,41.58
2024-05-09T17:40:39.412Z,40.70
2024-05-09T17:43:10.951Z,41.53
2024-05-09T17:45:40.882Z,40.94
2024-05-09T17:48:11.492Z,40.86
2024-05-09T17:50:41.376Z,41.29
2024-05-09T17:53:11.329Z,41.22
2024-05-09T17:55:40.465Z,41.45
2024-05-09T17:58:10.140Z,42.32
2024-05-09T18:00:41.298Z,41.96
2024-05-09T18:03:12.532Z,42.43
2024-05-09T18:05:43.675Z,42.64
2024-05-09T18:08:13.773Z,43.23
2024-05-09T18:10:42.481Z,42.67
2024-05-09T18:13:12.467Z,42.92
2024-05-09T18:15:41.253Z,42.24
2024-05-09T18:18:12.213Z,43.15
2024-05-09T18:20:44.636Z,43.55
2024-05-09T18:23:16.779Z,44.12
2024-05-09T18:25:47.135Z,44.70
2024-05-09T18:28:17.066Z,44.93
2024-05-09T18:30:45.875Z,45.17
2024-05-09T18:33:14.758Z,44.94
2024-05-09T18:35:44.249Z,43.84
2024-05-09T18:38:13.059Z,43.75
2024-05-09T18:40:43.682Z,44.20
2024-05-09T18:43:13.999Z,43.99
2024-05-09T18:45:43.611Z,44.09
2024-05-09T18:48:13.468Z,43.86
2024-05-09T18:50:41.933Z,43.62
2024-05-09T18:53:12.713Z,43.70
2024-05-09T18:55:42.389Z,44.13
2024-05-09T18:58:11.397Z,44.30
2024-05-09T19:00:41.852Z,44.77
2024-05-09T19:03:14.868Z,45.32
2024-05-09T19:05:45.254Z,45.16
2024-05-09T19:08:15.730Z,44.97
2024-05-09T19:10:46.123Z,45.42
2024-05-09T19:13:15.503Z,44.57
2024-05-09T19:15:44.324Z,44.75
2024-05-09T19:18:14.897Z,44.59
2024-05-09T19:20:44.503Z,44.41
2024-05-09T19:23:13.619Z,44.31
2024-05-09T19:25:41.661Z,44.43
2024-05-09T19:28:10.562Z,44.38
2024-05-09T19:30:41.795Z,45.19
2024-05-09T19:33:13.457Z,44.87
2024-05-09T19:35:43.560Z,45.27
2024-05-09T19:38:12.853Z,45.46
2024-05-09T19:40:41.398Z,46.40
2024-05-09T19:43:10.558Z,46.05
2024-05-09T19:45:38.761Z,46.22
2024-05-09T19:48:08.101Z,47.06
2024-05-09T19:50:42.182Z,47.30
2024-05-09T19:53:14.343Z,46.66
2024-05-09T19:55:42.809Z,46.82
2024-05-09T19:58:12.635Z,46.92
2024-05-09T20:00:43.365Z,46.89
2024-05-09T20:03:15.278Z,46.30
2024-05-09T20:05:46.775Z,46.23
2024-05-09T20:08:17.011Z,46.39
2024-05-09T20:10:45.278Z,47.18
2024-05-09T20:13:14.449Z,46.98
2024-05-09T20:15:42.805Z,47.45
2024-05-09T20:18:11.798Z,48.18
2024-05-09T20:20:42.832Z,47.99
2024-05-09T20:23:14.421Z,48.93
2024-05-09T20:25:42.947Z,48.91
2024-05-09T20:28:11.734Z,49.94
2024-05-09T20:30:40.175Z,50.95
2024-05-09T20:33:09.800Z,50.58
2024-05-09T20:35:38.447Z,51.42
2024-05-09T20:38:07.239Z,52.13
2024-05-09T20:40:38.331Z,52.19
2024-05-09T20:43:10.238Z,53.15
2024-05-09T20:45:39.537Z,53.78
2024-05-09T20:48:09.448Z,54.12
2024-05-09T20:50:41.144Z,53.99
2024-05-09T20:53:13.202Z,53.74
2024-05-09T20:55:45.690Z,54.84
2024-05-09T20:58:14.686Z,56.16
2024-05-09T21:00:45.641Z,55.77
2024-05-09T21:03:16.834Z,56.37
2024-05-09T21:05:46.977Z,55.95
2024-05-09T21:08:16.160Z,54.79
2024-05-09T21:10:44.575Z,55.49
2024-05-09T21:13:13.239Z,55.76
2024-05-09T21:15:41.521Z,55.42
2024-05-09T21:18:10.198Z,56.04
2024-05-09T21:20:38.506Z,55.33
2024-05-09T21:23:07.194Z,55.10
2024-05-09T21:25:35.414Z,55.39
2024-05-09T21:28:04.276Z,55.51
2024-05-09T21:30:40.943Z,55.23
2024-05-09T21:33:13.894Z,55.49
2024-05-09T21:35:44.437Z,55.32
2024-05-09T21:38:14.763Z,55.28
2024-05-09T21:40:44.131Z,55.52
2024-05-09T21:43:13.110Z,56.25
2024-05-09T21:45:41.385Z,55.64
2024-05-09T21:50:41.155Z,56.23
2024-05-09T21:53:12.391Z,56.77
2024-05-09T21:55:45.126Z,56.58
2024-05-09T21:58:16.280Z,56.33
2024-05-09T22:00:46.593Z,56.16
2024-05-09T22:03:15.371Z,56.71
2024-05-09T22:05:45.177Z,57.02
2024-05-09T22:08:13.957Z,57.20
2024-05-09T22:10:42.953Z,57.00
2024-05-09T22:13:11.147Z,57.38
2024-05-09T22:15:40.596Z,56.20
2024-05-09T22:18:11.004Z,56.14
2024-05-09T22:20:45.841Z,56.91
2024-05-09T22:23:15.934Z,56.46
2024-05-09T22:25:44.790Z,57.72
2024-05-09T22:28:16.362Z,56.71
2024-05-09T22:30:47.355Z,56.44
2024-05-09T22:33:16.286Z,56.74
2024-05-09T22:35:45.511Z,55.98
2024-05-09T22:38:13.951Z,56.90
2024-05-09T22:40:47.905Z,57.07
2024-05-09T22:43:23.370Z,56.68
2024-05-09T22:45:57.024Z,56.95
2024-05-09T22:48:26.012Z,56.98
2024-05-09T22:50:55.288Z,56.97
2024-05-09T22:53:25.449Z,56.37
2024-05-09T22:55:54.613Z,56.42
2024-05-09T23:00:52.415Z,56.72
2024-05-09T23:03:22.036Z,56.54
2024-05-09T23:05:52.291Z,56.37
2024-05-09T23:08:20.488Z,56.34
2024-05-09T23:10:49.101Z,55.99
2024-05-09T23:13:17.207Z,55.76
2024-05-09T23:15:45.912Z,55.82
2024-05-09T23:18:14.239Z,55.60
2024-05-09T23:20:42.928Z,55.55
2024-05-09T23:23:12.231Z,56.05
2024-05-09T23:25:44.016Z,54.99
2024-05-09T23:28:12.744Z,55.12
2024-05-09T23:30:42.235Z,54.51
2024-05-09T23:33:14.810Z,53.28
2024-05-09T23:35:44.515Z,51.99
2024-05-09T23:38:13.651Z,50.09
2024-05-09T23:40:43.177Z,48.26
2024-05-09T23:43:12.791Z,47.24
2024-05-09T23:45:42.774Z,46.15
2024-05-09T23:48:11.782Z,45.27
2024-05-09T23:50:41.326Z,45.00
2024-05-09T23:53:10.821Z,45.17
2024-05-09T23:55:40.124Z,44.54
2024-05-09T23:58:09.170Z,44.09
